Time;durP1;ratioP1;P1;durP2;ratioP2;P2;SDS_P1;SDS_P2;PMS_P1;PMS_P2;Temp;Humidity;BMP_temperature;BMP_pressure;BME280_temperature;BME280_humidity;BME280_pressure;Samples;Min_cycle;Max_cycle;Signal;HPM_P1;HPM_P2
2022/08/09 00:01:01;;;;;;;2.53;2.30;;;20.50;99.90;;;;;;5074094;28;20198;-80
2022/08/09 00:03:29;;;;;;;4.70;2.00;;;20.30;99.90;;;;;;5079891;28;20190;-80
2022/08/09 00:05:56;;;;;;;2.80;2.30;;;20.30;99.90;;;;;;5068264;28;20660;-80
2022/08/09 00:08:24;;;;;;;3.65;2.63;;;20.30;99.90;;;;;;5069298;28;20248;-79
2022/08/09 00:10:53;;;;;;;3.08;1.90;;;20.30;99.90;;;;;;5070298;28;20690;-79
2022/08/09 00:13:20;;;;;;;2.63;1.98;;;20.50;99.90;;;;;;5068547;28;20194;-79
2022/08/09 00:15:48;;;;;;;3.92;2.78;;;20.40;99.90;;;;;;5066469;28;20205;-79
2022/08/09 00:18:16;;;;;;;5.63;2.53;;;20.10;99.90;;;;;;5066743;28;20189;-79
2022/08/09 00:20:43;;;;;;;3.28;2.10;;;20.20;99.90;;;;;;5067512;28;20202;-79
2022/08/09 00:23:11;;;;;;;2.20;1.90;;;20.30;99.90;;;;;;5076079;28;20682;-79
2022/08/09 00:25:38;;;;;;;2.13;1.95;;;20.70;99.90;;;;;;5070137;28;20195;-79
2022/08/09 00:28:09;;;;;;;5.88;2.60;;;20.50;99.90;;;;;;5069876;28;20672;-79
2022/08/09 00:30:37;;;;;;;2.88;2.42;;;20.50;99.90;;;;;;5076566;28;20202;-79
2022/08/09 00:33:04;;;;;;;2.67;1.90;;;20.40;99.90;;;;;;5068799;28;20205;-79
2022/08/09 00:35:33;;;;;;;3.95;2.28;;;20.60;99.90;;;;;;5070309;28;20206;-79
2022/08/09 00:38:00;;;;;;;3.03;2.05;;;20.80;99.90;;;;;;5069283;28;20221;-80
2022/08/09 00:40:28;;;;;;;3.30;2.55;;;20.30;99.90;;;;;;5072352;28;20209;-80
2022/08/09 00:42:55;;;;;;;3.22;2.40;;;20.30;99.90;;;;;;5070261;28;20201;-80
2022/08/09 00:45:24;;;;;;;3.67;2.53;;;20.20;99.90;;;;;;5075825;28;20197;-81
2022/08/09 00:47:52;;;;;;;3.20;2.17;;;19.80;99.90;;;;;;5071392;28;20226;-80
2022/08/09 00:50:20;;;;;;;4.13;2.45;;;20.00;99.90;;;;;;5073867;28;20205;-80
2022/08/09 00:52:47;;;;;;;2.95;2.55;;;19.80;99.90;;;;;;5077538;28;20276;-79
2022/08/09 00:55:15;;;;;;;3.72;2.20;;;19.50;99.90;;;;;;5069667;28;20198;-79
2022/08/09 00:57:42;;;;;;;2.50;2.30;;;19.60;99.90;;;;;;5076872;28;20224;-79
2022/08/09 01:00:11;;;;;;;3.92;2.38;;;19.70;99.90;;;;;;5071263;28;20206;-79
2022/08/09 01:02:48;;;;;;;3.15;2.10;;;19.80;99.90;;;;;;5072197;28;20202;-79
2022/08/09 01:05:22;;;;;;;4.00;2.10;;;19.40;99.90;;;;;;5076962;28;20209;-80
2022/08/09 01:07:58;;;;;;;3.25;2.40;;;19.60;99.90;;;;;;5077229;28;20213;-80
2022/08/09 01:10:30;;;;;;;3.15;2.13;;;19.80;99.90;;;;;;5075615;28;20217;-80
2022/08/09 01:13:07;;;;;;;3.55;2.38;;;20.00;99.90;;;;;;5070687;28;20194;-80
2022/08/09 01:15:40;;;;;;;3.47;2.60;;;19.70;99.90;;;;;;5076789;28;20201;-80
2022/08/09 01:18:12;;;;;;;3.90;2.45;;;19.50;99.90;;;;;;5069732;28;20216;-80
2022/08/09 01:20:52;;;;;;;4.78;2.60;;;19.40;99.90;;;;;;5065427;28;20222;-80
2022/08/09 01:23:40;;;;;;;3.80;2.08;;;19.50;99.90;;;;;;5067442;28;20193;-79
2022/08/09 01:26:47;;;;;;;2.25;1.88;;;19.90;99.90;;;;;;5074189;28;20236;-79
2022/08/09 01:29:19;;;;;;;2.45;2.25;;;20.00;99.90;;;;;;5058448;28;20202;-79
2022/08/09 01:31:47;;;;;;;5.90;2.63;;;20.00;99.90;;;;;;5070521;28;20205;-79
2022/08/09 01:34:19;;;;;;;3.03;2.72;;;19.90;99.90;;;;;;5077923;28;20208;-79
2022/08/09 01:36:48;;;;;;;3.20;2.50;;;19.60;99.90;;;;;;5078279;28;20217;-79
2022/08/09 01:39:17;;;;;;;3.80;2.60;;;19.50;99.90;;;;;;5072222;28;20207;-79
2022/08/09 01:41:46;;;;;;;5.03;2.65;;;19.50;99.90;;;;;;5072956;28;20198;-80
2022/08/09 01:44:17;;;;;;;2.85;2.40;;;19.40;99.90;;;;;;5077433;28;20205;-80
2022/08/09 01:46:46;;;;;;;2.35;2.25;;;19.40;99.90;;;;;;5079249;28;20221;-80
2022/08/09 01:49:16;;;;;;;2.58;2.30;;;19.40;99.90;;;;;;5073289;28;20221;-80
2022/08/09 01:51:46;;;;;;;3.65;2.60;;;19.70;99.90;;;;;;5068972;28;20652;-79
2022/08/09 01:54:16;;;;;;;4.03;2.60;;;19.40;99.90;;;;;;5075447;28;20198;-79
2022/08/09 01:56:46;;;;;;;2.88;2.35;;;19.30;99.90;;;;;;5070367;28;20210;-79
2022/08/09 01:59:18;;;;;;;3.47;2.70;;;19.20;99.90;;;;;;5067118;28;20193;-79
2022/08/09 02:01:48;;;;;;;2.80;2.55;;;19.10;99.90;;;;;;5076162;28;20484;-79
2022/08/09 02:04:16;;;;;;;4.40;2.65;;;19.00;99.90;;;;;;5075119;28;20694;-80
2022/08/09 02:09:32;;;;;;;2.92;2.40;;;19.00;99.90;;;;;;5070409;28;20600;-80
2022/08/09 02:12:01;;;;;;;3.80;2.95;;;19.00;99.90;;;;;;5073238;28;20205;-80
2022/08/09 02:14:31;;;;;;;3.70;2.30;;;19.00;99.90;;;;;;5076030;28;20201;-80
2022/08/09 02:16:59;;;;;;;4.75;2.38;;;19.00;99.90;;;;;;5068741;28;20217;-80
2022/08/09 02:19:27;;;;;;;2.75;2.55;;;19.20;99.90;;;;;;5075642;28;20190;-80
2022/08/09 02:22:01;;;;;;;3.50;2.33;;;19.20;99.90;;;;;;5076025;28;20201;-80
2022/08/09 02:24:36;;;;;;;3.15;2.40;;;19.30;99.90;;;;;;5074313;28;20189;-80
2022/08/09 02:27:08;;;;;;;3.50;2.40;;;19.00;99.90;;;;;;5075444;28;20587;-80
2022/08/09 02:29:41;;;;;;;6.30;3.30;;;19.10;99.90;;;;;;5076475;28;20220;-80
2022/08/09 02:32:10;;;;;;;4.22;2.60;;;18.90;99.90;;;;;;5069678;28;20194;-80
2022/08/09 02:34:42;;;;;;;3.47;3.05;;;18.80;99.90;;;;;;5078432;28;20205;-80
2022/08/09 02:37:14;;;;;;;3.17;2.88;;;18.80;99.90;;;;;;5070741;28;20229;-80
2022/08/09 02:39:46;;;;;;;4.22;3.03;;;18.80;99.90;;;;;;5067920;28;20202;-80
2022/08/09 02:42:19;;;;;;;3.03;2.60;;;18.70;99.90;;;;;;5068131;28;20197;-80
2022/08/09 02:44:52;;;;;;;3.03;2.72;;;18.70;99.90;;;;;;5068536;28;20198;-80
2022/08/09 02:47:22;;;;;;;4.07;2.92;;;18.70;99.90;;;;;;5066884;28;20232;-80
2022/08/09 02:49:59;;;;;;;2.55;2.35;;;18.70;99.90;;;;;;5076862;28;20581;-80
2022/08/09 02:52:31;;;;;;;4.22;2.80;;;18.80;99.90;;;;;;5066273;28;20202;-80
2022/08/09 02:55:01;;;;;;;4.95;3.05;;;18.80;99.90;;;;;;5063172;28;20198;-79
2022/08/09 02:57:30;;;;;;;3.50;2.70;;;18.90;99.90;;;;;;5068017;28;20222;-79
2022/08/09 03:00:01;;;;;;;4.45;3.00;;;18.70;99.90;;;;;;5063894;28;20189;-79
2022/08/09 03:02:29;;;;;;;4.22;2.50;;;18.70;99.90;;;;;;5069418;28;20682;-80
2022/08/09 03:04:58;;;;;;;3.38;2.70;;;18.70;99.90;;;;;;5072638;28;20204;-80
2022/08/09 03:07:26;;;;;;;3.67;2.83;;;18.60;99.90;;;;;;5059622;28;20225;-80
2022/08/09 03:09:54;;;;;;;3.92;3.28;;;18.60;99.90;;;;;;5070362;28;20229;-80
2022/08/09 03:12:24;;;;;;;4.78;3.22;;;18.40;99.90;;;;;;5067375;28;20205;-80
2022/08/09 03:14:52;;;;;;;3.50;3.20;;;18.30;99.90;;;;;;5069796;28;20206;-80
2022/08/09 03:17:21;;;;;;;4.55;2.80;;;18.30;99.90;;;;;;5064501;28;20222;-80
2022/08/09 03:19:49;;;;;;;2.92;2.58;;;18.30;99.90;;;;;;5064778;28;20200;-79
2022/08/09 03:22:20;;;;;;;4.85;2.67;;;18.10;99.90;;;;;;5065051;28;20209;-79
2022/08/09 03:24:47;;;;;;;5.82;3.20;;;18.20;99.90;;;;;;5067309;28;20216;-79
2022/08/09 03:27:15;;;;;;;3.63;2.70;;;18.20;99.90;;;;;;5073079;28;20221;-79
2022/08/09 03:29:44;;;;;;;4.68;2.88;;;18.30;99.90;;;;;;5069353;28;20211;-79
2022/08/09 03:32:13;;;;;;;2.88;2.67;;;18.90;99.90;;;;;;5072670;28;20201;-79
2022/08/09 03:34:42;;;;;;;4.15;3.20;;;18.60;99.90;;;;;;5081140;28;20201;-79
2022/08/09 03:37:10;;;;;;;3.55;2.85;;;18.50;99.90;;;;;;5081122;28;20218;-79
2022/08/09 03:39:37;;;;;;;4.15;3.50;;;18.80;99.90;;;;;;5079379;28;20560;-80
2022/08/09 03:42:05;;;;;;;4.57;3.00;;;18.70;99.90;;;;;;5078441;28;20205;-80
2022/08/09 03:44:33;;;;;;;3.35;3.05;;;18.70;99.90;;;;;;5081395;28;20276;-80
2022/08/09 03:47:00;;;;;;;3.60;3.30;;;18.40;99.90;;;;;;5076806;28;20221;-80
2022/08/09 03:49:28;;;;;;;6.15;3.58;;;18.20;99.90;;;;;;5080126;28;20229;-80
2022/08/09 03:52:00;;;;;;;3.38;3.10;;;18.00;99.90;;;;;;5080934;28;20196;-80
2022/08/09 03:54:31;;;;;;;3.33;3.00;;;17.90;99.90;;;;;;5080894;28;20201;-80
2022/08/09 03:57:01;;;;;;;4.63;3.50;;;18.10;99.90;;;;;;5076898;28;20217;-80
2022/08/09 03:59:29;;;;;;;4.10;2.70;;;18.20;99.90;;;;;;5075530;28;20190;-80
2022/08/09 04:01:57;;;;;;;5.63;3.13;;;18.80;99.90;;;;;;5080692;28;20202;-81
2022/08/09 04:04:26;;;;;;;4.72;3.25;;;18.90;99.90;;;;;;5084242;28;20201;-81
2022/08/09 04:06:54;;;;;;;4.35;3.20;;;19.10;99.90;;;;;;5084289;28;20226;-81
2022/08/09 04:09:23;;;;;;;3.70;3.05;;;18.70;99.90;;;;;;5084979;28;20209;-81
2022/08/09 04:12:23;;;;;;;4.85;2.88;;;19.00;99.90;;;;;;5082098;28;20198;-81
2022/08/09 04:14:50;;;;;;;3.75;2.97;;;19.10;99.90;;;;;;5079883;28;20202;-82
2022/08/09 04:17:18;;;;;;;3.40;3.10;;;19.10;99.90;;;;;;5074579;28;20217;-81
2022/08/09 04:19:45;;;;;;;3.83;3.05;;;18.60;99.90;;;;;;5086118;28;20204;-81
2022/08/09 04:22:14;;;;;;;4.25;3.17;;;18.70;99.90;;;;;;5087432;28;20193;-81
2022/08/09 04:24:43;;;;;;;4.30;3.15;;;18.50;99.90;;;;;;5088682;28;20198;-81
2022/08/09 04:27:11;;;;;;;4.68;3.00;;;18.30;99.90;;;;;;5085235;28;20262;-81
2022/08/09 04:29:38;;;;;;;3.65;3.30;;;18.30;99.90;;;;;;5087908;28;20216;-81
2022/08/09 04:32:06;;;;;;;4.03;3.63;;;17.90;99.90;;;;;;5082525;28;20202;-81
2022/08/09 04:34:34;;;;;;;4.22;2.95;;;17.90;99.90;;;;;;5086848;28;20202;-81
2022/08/09 04:37:02;;;;;;;4.18;3.50;;;18.30;99.90;;;;;;5085631;28;20217;-81
2022/08/09 04:39:30;;;;;;;4.50;3.63;;;18.70;99.90;;;;;;5084829;28;20194;-80
2022/08/09 04:41:59;;;;;;;5.32;3.97;;;18.60;99.90;;;;;;5087433;28;20194;-81
2022/08/09 04:44:27;;;;;;;4.55;3.90;;;18.40;99.90;;;;;;5084230;28;20201;-81
2022/08/09 04:46:55;;;;;;;6.40;3.65;;;18.30;99.90;;;;;;5087522;28;20218;-81
2022/08/09 04:49:22;;;;;;;4.68;3.53;;;18.50;99.90;;;;;;5088505;28;20202;-81
2022/08/09 04:51:50;;;;;;;4.78;3.53;;;18.30;99.90;;;;;;5086186;28;20209;-80
2022/08/09 04:54:18;;;;;;;4.38;3.40;;;18.30;99.90;;;;;;5075230;28;20202;-81
2022/08/09 04:56:46;;;;;;;5.88;3.92;;;18.60;99.90;;;;;;5078362;28;20572;-81
2022/08/09 04:59:15;;;;;;;4.75;3.60;;;18.80;99.90;;;;;;5086201;28;20197;-81
2022/08/09 05:01:42;;;;;;;4.63;3.40;;;18.80;99.90;;;;;;5081603;28;20212;-80
2022/08/09 05:04:10;;;;;;;5.82;4.03;;;18.80;99.90;;;;;;5077136;28;20201;-81
2022/08/09 05:06:37;;;;;;;4.13;2.83;;;18.80;99.90;;;;;;5085638;28;20213;-81
2022/08/09 05:09:05;;;;;;;4.30;3.88;;;19.10;99.90;;;;;;5080505;28;20210;-82
2022/08/09 05:11:33;;;;;;;5.57;4.20;;;19.10;99.90;;;;;;5064854;28;20214;-81
2022/08/09 05:14:03;;;;;;;4.72;3.28;;;18.70;99.90;;;;;;5082957;28;20213;-81
2022/08/09 05:16:34;;;;;;;5.00;3.60;;;18.80;99.90;;;;;;5074434;28;20217;-81
2022/08/09 05:19:02;;;;;;;5.43;3.80;;;19.10;99.90;;;;;;5074786;28;20194;-80
2022/08/09 05:21:31;;;;;;;4.22;3.08;;;19.30;99.90;;;;;;5069408;28;20197;-80
2022/08/09 05:23:58;;;;;;;6.70;3.88;;;19.40;99.90;;;;;;5072495;28;20201;-80
2022/08/09 05:26:26;;;;;;;4.53;3.42;;;19.50;99.90;;;;;;5073201;28;20226;-81
2022/08/09 05:28:56;;;;;;;3.97;3.05;;;19.60;99.90;;;;;;5074517;28;20209;-81
2022/08/09 05:31:23;;;;;;;4.10;3.25;;;19.60;99.90;;;;;;5070840;28;20236;-80
2022/08/09 05:33:52;;;;;;;5.43;3.53;;;19.70;99.90;;;;;;5069414;28;20208;-80
2022/08/09 05:36:20;;;;;;;4.82;4.15;;;19.60;99.90;;;;;;5073509;28;20228;-81
2022/08/09 05:38:47;;;;;;;6.53;4.03;;;19.80;99.90;;;;;;5073227;28;20213;-80
2022/08/09 05:41:15;;;;;;;4.97;3.75;;;19.40;99.90;;;;;;5074683;28;20194;-80
2022/08/09 05:43:42;;;;;;;4.90;4.05;;;19.70;99.90;;;;;;5071655;28;20198;-80
2022/08/09 05:46:10;;;;;;;5.70;3.40;;;19.60;99.90;;;;;;5069777;28;20222;-79
2022/08/09 05:48:38;;;;;;;4.75;3.60;;;19.80;99.90;;;;;;5074112;28;20675;-80
2022/08/09 05:51:07;;;;;;;5.45;3.60;;;19.70;99.90;;;;;;5067694;28;20222;-80
2022/08/09 05:53:34;;;;;;;5.05;3.67;;;19.70;99.90;;;;;;5073292;28;20235;-80
2022/08/09 05:56:03;;;;;;;5.05;3.60;;;19.90;99.90;;;;;;5085547;28;20209;-81
2022/08/09 05:58:31;;;;;;;7.25;4.30;;;20.00;99.90;;;;;;5071669;28;20190;-81
2022/08/09 06:01:00;;;;;;;5.13;4.22;;;20.00;99.90;;;;;;5065391;28;20201;-82
2022/08/09 06:03:28;;;;;;;5.15;4.55;;;19.90;99.90;;;;;;5071234;28;20198;-81
2022/08/09 06:05:55;;;;;;;5.95;4.75;;;19.50;99.90;;;;;;5085689;28;20563;-80
2022/08/09 06:08:24;;;;;;;6.82;4.47;;;19.40;99.90;;;;;;5067195;28;20194;-81
2022/08/09 06:10:54;;;;;;;5.57;4.70;;;19.20;99.90;;;;;;5068421;28;20221;-82
2022/08/09 06:13:22;;;;;;;5.38;4.90;;;19.00;99.90;;;;;;5069868;28;20201;-81
2022/08/09 06:15:50;;;;;;;5.65;4.13;;;18.90;99.90;;;;;;5063284;28;20197;-82
2022/08/09 06:18:18;;;;;;;5.55;4.93;;;18.90;99.90;;;;;;5064958;28;20198;-82
2022/08/09 06:20:45;;;;;;;5.60;3.97;;;19.00;99.90;;;;;;5074311;28;20200;-85
2022/08/09 06:23:13;;;;;;;4.53;4.13;;;19.50;99.90;;;;;;5068989;28;20583;-82
2022/08/09 06:25:42;;;;;;;5.72;4.00;;;19.60;99.90;;;;;;5072392;28;20562;-82
2022/08/09 06:28:12;;;;;;;5.25;4.53;;;19.70;99.90;;;;;;5076636;28;20233;-82
2022/08/09 06:30:43;;;;;;;5.45;3.90;;;19.70;99.90;;;;;;5071182;28;20228;-79
2022/08/09 06:33:10;;;;;;;6.78;4.68;;;20.00;99.90;;;;;;5070848;28;20668;-80
2022/08/09 06:35:38;;;;;;;5.03;4.15;;;20.10;99.90;;;;;;5068204;28;20198;-81
2022/08/09 06:38:06;;;;;;;7.45;4.47;;;20.20;99.90;;;;;;5069434;28;20221;-83
2022/08/09 06:40:34;;;;;;;5.20;4.47;;;20.30;99.90;;;;;;5069316;28;20181;-79
2022/08/09 06:43:03;;;;;;;6.18;5.00;;;20.20;99.90;;;;;;5066896;28;20272;-79
2022/08/09 06:45:30;;;;;;;5.07;4.10;;;20.00;99.90;;;;;;5068266;28;20198;-79
2022/08/09 06:47:58;;;;;;;7.28;5.30;;;20.20;99.90;;;;;;5075677;28;20217;-79
2022/08/09 06:50:26;;;;;;;5.90;4.43;;;19.70;99.90;;;;;;5069227;28;20205;-79
2022/08/09 06:52:53;;;;;;;5.32;4.30;;;20.00;99.90;;;;;;5068536;28;20209;-80
2022/08/09 06:55:22;;;;;;;6.25;4.47;;;20.20;99.90;;;;;;5062373;28;20202;-80
2022/08/09 06:57:50;;;;;;;5.38;4.35;;;20.40;99.90;;;;;;5067690;28;20225;-80
2022/08/09 07:00:19;;;;;;;5.55;4.95;;;20.40;99.90;;;;;;5060923;28;20214;-80
2022/08/09 07:02:47;;;;;;;5.50;4.95;;;20.40;99.90;;;;;;5067535;28;20205;-81
2022/08/09 07:05:15;;;;;;;6.95;3.95;;;20.20;99.90;;;;;;5071787;28;20198;-82
2022/08/09 07:07:49;;;;;;;7.68;4.32;;;20.40;99.90;;;;;;5070791;28;20218;-81
2022/08/09 07:10:18;;;;;;;4.82;3.60;;;20.50;99.90;;;;;;5073796;28;20204;-82
2022/08/09 07:12:45;;;;;;;5.97;4.70;;;20.70;99.90;;;;;;5071942;28;20204;-81
2022/08/09 07:15:13;;;;;;;12.15;4.57;;;20.80;99.90;;;;;;5070913;28;20201;-81
2022/08/09 07:17:42;;;;;;;7.78;5.07;;;20.80;99.90;;;;;;5074197;28;20218;-80
2022/08/09 07:20:10;;;;;;;4.43;4.03;;;20.60;99.90;;;;;;5065493;28;20212;-81
2022/08/09 07:22:38;;;;;;;3.83;3.50;;;20.50;99.90;;;;;;5069475;28;20194;-80
2022/08/09 07:25:09;;;;;;;7.05;4.97;;;20.30;99.90;;;;;;5063030;28;20205;-80
2022/08/09 07:27:37;;;;;;;5.63;3.95;;;20.40;99.90;;;;;;5067367;28;20236;-80
2022/08/09 07:30:06;;;;;;;5.35;3.92;;;20.30;99.90;;;;;;5068687;28;20208;-80
2022/08/09 07:32:34;;;;;;;7.93;4.57;;;20.70;99.90;;;;;;5062451;28;20562;-83
2022/08/09 07:35:04;;;;;;;5.45;4.68;;;20.70;99.90;;;;;;5069551;28;20198;-81
2022/08/09 07:37:32;;;;;;;6.55;4.45;;;20.60;99.90;;;;;;5066088;28;20221;-80
2022/08/09 07:40:00;;;;;;;5.75;4.72;;;20.60;99.90;;;;;;5070748;28;20209;-80
2022/08/09 07:42:27;;;;;;;5.35;3.85;;;20.90;99.90;;;;;;5068660;28;20193;-81
2022/08/09 07:44:55;;;;;;;5.00;3.97;;;21.10;99.90;;;;;;5071740;28;20200;-82
2022/08/09 07:47:22;;;;;;;6.28;4.75;;;21.20;99.90;;;;;;5071635;28;20224;-81
2022/08/09 07:49:51;;;;;;;4.10;3.67;;;21.10;99.90;;;;;;5064560;28;20206;-80
2022/08/09 07:52:19;;;;;;;8.77;4.88;;;21.20;99.90;;;;;;5069620;28;20213;-79
2022/08/09 07:54:47;;;;;;;6.30;4.30;;;21.20;99.90;;;;;;5066765;28;20201;-81
2022/08/09 07:57:14;;;;;;;5.55;4.03;;;21.40;99.90;;;;;;5070877;28;20591;-80
2022/08/09 07:59:42;;;;;;;5.63;4.07;;;21.50;99.90;;;;;;5073363;28;20208;-81
2022/08/09 08:02:09;;;;;;;5.68;3.92;;;21.50;99.90;;;;;;5073922;28;20190;-80
2022/08/09 08:04:37;;;;;;;6.07;3.65;;;21.60;99.90;;;;;;5074408;28;20194;-81
2022/08/09 08:07:05;;;;;;;5.70;4.10;;;21.50;99.90;;;;;;5070867;28;20224;-81
2022/08/09 08:09:34;;;;;;;5.57;3.75;;;21.50;99.90;;;;;;5074166;28;20209;-81
2022/08/09 08:12:02;;;;;;;3.42;3.13;;;21.60;99.90;;;;;;5073856;28;20224;-80
2022/08/09 08:14:29;;;;;;;3.97;3.33;;;21.70;99.90;;;;;;5072117;28;20205;-80
2022/08/09 08:16:57;;;;;;;3.83;3.53;;;21.70;99.90;;;;;;5071092;28;20217;-81
2022/08/09 08:19:24;;;;;;;5.45;4.15;;;21.70;99.90;;;;;;5067728;28;20190;-81
2022/08/09 08:21:52;;;;;;;4.97;3.95;;;21.80;99.90;;;;;;5067584;28;20205;-79
2022/08/09 08:24:19;;;;;;;5.65;4.13;;;21.80;99.90;;;;;;5063606;28;20198;-80
2022/08/09 08:26:48;;;;;;;6.70;4.50;;;21.80;99.90;;;;;;5073327;28;20224;-80
2022/08/09 08:29:18;;;;;;;4.38;3.70;;;21.80;99.90;;;;;;5074312;28;20209;-81
2022/08/09 08:31:46;;;;;;;6.60;3.85;;;21.80;99.90;;;;;;5067810;28;20217;-79
2022/08/09 08:34:13;;;;;;;3.83;3.42;;;21.80;99.90;;;;;;5076948;28;20194;-78
2022/08/09 08:48:25;;;;;;;4.60;3.78;;;22.10;99.90;;;;;;5071431;28;20208;-80
2022/08/09 08:50:53;;;;;;;5.25;3.70;;;22.00;99.90;;;;;;5068996;28;20205;-80
2022/08/09 08:53:22;;;;;;;4.30;3.60;;;22.10;99.90;;;;;;5072303;28;20719;-80
2022/08/09 08:55:49;;;;;;;7.22;3.65;;;22.20;99.90;;;;;;5073025;28;20210;-80
2022/08/09 08:58:17;;;;;;;4.53;3.35;;;22.30;99.90;;;;;;5074066;28;20194;-80
2022/08/09 09:00:45;;;;;;;3.88;3.53;;;22.40;99.90;;;;;;5070249;28;20534;-80
2022/08/09 09:03:15;;;;;;;4.18;3.20;;;22.30;99.90;;;;;;5071522;28;20198;-82
2022/08/09 09:05:45;;;;;;;7.50;3.63;;;22.40;99.90;;;;;;5073461;28;20216;-80
2022/08/09 09:08:15;;;;;;;4.97;3.55;;;22.50;99.90;;;;;;5068131;28;20198;-80
2022/08/09 09:10:44;;;;;;;5.78;3.40;;;22.50;99.70;;;;;;5072035;28;20259;-80
2022/08/09 09:13:12;;;;;;;5.55;3.83;;;22.60;99.50;;;;;;5073928;28;20210;-79
2022/08/09 09:15:39;;;;;;;4.40;3.90;;;22.50;99.40;;;;;;5073728;28;20558;-80
2022/08/09 09:18:07;;;;;;;4.50;3.75;;;22.60;99.50;;;;;;5065867;28;20214;-79
2022/08/09 09:20:37;;;;;;;4.35;3.50;;;22.70;98.70;;;;;;5069034;28;20204;-80
2022/08/09 09:23:06;;;;;;;5.47;3.60;;;22.70;98.20;;;;;;5072824;28;20202;-79
2022/08/09 09:25:36;;;;;;;5.30;3.85;;;22.80;98.50;;;;;;5069311;28;20216;-79
2022/08/09 09:28:05;;;;;;;5.65;4.13;;;22.70;98.40;;;;;;5070069;28;20225;-78
2022/08/09 09:30:34;;;;;;;6.13;3.88;;;22.70;98.20;;;;;;5069038;28;20193;-78
2022/08/09 09:33:07;;;;;;;5.40;3.95;;;22.80;98.40;;;;;;5072371;28;20226;-79
2022/08/09 09:35:52;;;;;;;5.38;3.60;;;22.90;98.50;;;;;;5070039;28;20202;-79
2022/08/09 09:38:23;;;;;;;5.55;3.85;;;23.10;98.50;;;;;;5070693;28;20205;-79
2022/08/09 09:40:50;;;;;;;5.25;3.85;;;23.10;98.10;;;;;;5071440;28;20225;-80
2022/08/09 09:43:19;;;;;;;5.78;3.45;;;23.20;97.80;;;;;;5070538;28;20198;-80
2022/08/09 09:45:49;;;;;;;4.03;3.15;;;23.20;97.30;;;;;;5070980;28;20198;-80
2022/08/09 09:48:17;;;;;;;3.70;3.40;;;23.40;97.00;;;;;;5069384;28;20288;-79
2022/08/09 09:50:46;;;;;;;4.75;3.33;;;23.50;96.00;;;;;;5067484;28;20661;-82
2022/08/09 09:53:15;;;;;;;5.95;4.03;;;23.40;95.80;;;;;;5076596;28;20206;-81
2022/08/09 09:55:59;;;;;;;5.32;3.58;;;23.40;95.60;;;;;;5072987;28;20201;-82
2022/08/09 09:58:44;;;;;;;4.75;3.38;;;23.60;95.40;;;;;;5071024;28;20201;-82
2022/08/09 10:01:22;;;;;;;6.22;5.63;;;23.50;94.30;;;;;;5061957;28;20201;-81
2022/08/09 10:03:51;;;;;;;4.03;3.53;;;23.50;94.10;;;;;;5071301;28;20189;-81
2022/08/09 10:06:20;;;;;;;6.18;3.67;;;23.50;94.00;;;;;;5064615;28;20224;-82
2022/08/09 10:08:59;;;;;;;4.15;3.35;;;23.50;93.80;;;;;;5072208;28;20194;-81
2022/08/09 10:11:29;;;;;;;4.00;3.17;;;23.70;94.50;;;;;;5070496;28;20225;-81
2022/08/09 10:13:57;;;;;;;4.55;3.08;;;23.70;93.50;;;;;;5071952;28;20209;-81
2022/08/09 10:16:30;;;;;;;6.03;3.67;;;23.80;93.30;;;;;;5065844;28;20240;-81
2022/08/09 10:19:00;;;;;;;4.07;3.08;;;23.90;93.10;;;;;;5069240;28;20197;-80
2022/08/09 10:21:27;;;;;;;7.07;3.08;;;23.90;92.80;;;;;;5067372;28;20292;-80
2022/08/09 10:23:59;;;;;;;4.78;3.60;;;24.00;92.60;;;;;;5067822;28;20193;-80
2022/08/09 10:26:28;;;;;;;4.65;2.80;;;23.90;91.60;;;;;;5068542;28;20201;-81
2022/08/09 10:28:57;;;;;;;4.82;3.13;;;24.10;92.00;;;;;;5069544;28;20205;-81
2022/08/09 10:31:25;;;;;;;3.78;3.08;;;24.10;91.50;;;;;;5065801;28;20202;-81
2022/08/09 10:33:52;;;;;;;3.78;3.00;;;24.00;90.90;;;;;;5070470;28;20213;-81
2022/08/09 10:36:20;;;;;;;3.35;3.05;;;24.20;91.00;;;;;;5061456;28;20221;-82
2022/08/09 10:38:48;;;;;;;4.38;2.90;;;24.10;90.30;;;;;;5060938;28;20204;-82
2022/08/09 10:41:17;;;;;;;4.25;2.80;;;24.30;90.00;;;;;;5068043;28;20209;-83
2022/08/09 10:43:50;;;;;;;4.95;2.90;;;24.40;90.20;;;;;;5066821;28;20200;-82
2022/08/09 10:46:46;;;;;;;5.38;3.00;;;24.60;89.80;;;;;;5069106;28;20217;-82
2022/08/09 10:49:29;;;;;;;4.50;3.28;;;24.60;89.80;;;;;;5064569;28;20198;-82
2022/08/09 10:52:08;;;;;;;3.92;3.20;;;24.60;89.00;;;;;;5066637;28;20194;-83
2022/08/09 10:54:36;;;;;;;4.60;2.88;;;24.80;88.20;;;;;;5066987;28;20193;-82
2022/08/09 10:57:08;;;;;;;3.45;3.03;;;24.90;88.00;;;;;;5070837;28;20240;-82
2022/08/09 10:59:38;;;;;;;5.05;3.00;;;25.00;86.90;;;;;;5073997;28;20189;-83
2022/08/09 11:02:08;;;;;;;4.68;3.70;;;25.00;86.90;;;;;;5066386;28;20202;-83
2022/08/09 11:05:13;;;;;;;4.85;3.22;;;25.10;85.70;;;;;;5062018;28;20206;-83
2022/08/09 11:07:41;;;;;;;3.92;3.50;;;25.10;85.40;;;;;;5070738;28;20221;-82
2022/08/09 11:10:08;;;;;;;4.03;3.55;;;25.20;84.60;;;;;;5069029;28;20206;-82
2022/08/09 11:12:36;;;;;;;3.83;3.25;;;25.30;85.00;;;;;;5065394;28;20217;-83
2022/08/09 11:15:27;;;;;;;4.70;3.40;;;25.50;84.00;;;;;;5068085;28;20206;-83
2022/08/09 11:17:57;;;;;;;3.40;3.10;;;25.50;83.50;;;;;;5068773;28;20221;-83
2022/08/09 11:20:46;;;;;;;4.68;3.13;;;25.30;83.00;;;;;;5067263;28;20201;-83
2022/08/09 11:23:14;;;;;;;3.33;2.90;;;25.50;82.80;;;;;;5059239;28;20186;-83
2022/08/09 11:25:45;;;;;;;4.32;3.45;;;25.60;82.20;;;;;;5065572;28;20217;-82
2022/08/09 11:28:40;;;;;;;7.13;4.78;;;25.60;82.10;;;;;;5066708;28;20209;-83
2022/08/09 11:31:40;;;;;;;4.65;3.22;;;25.70;80.40;;;;;;5067832;28;20212;-83
2022/08/09 11:34:17;;;;;;;4.07;3.20;;;25.60;80.10;;;;;;5065020;28;20213;-83
2022/08/09 11:36:46;;;;;;;5.63;3.47;;;25.80;80.70;;;;;;5060078;28;20236;-83
2022/08/09 11:39:13;;;;;;;3.15;2.92;;;26.00;79.10;;;;;;5068194;28;20201;-83
2022/08/09 11:41:41;;;;;;;5.18;2.75;;;26.10;79.00;;;;;;5064543;28;20193;-83
2022/08/09 11:44:09;;;;;;;6.72;3.08;;;26.00;77.40;;;;;;5061721;28;20198;-82
2022/08/09 11:46:55;;;;;;;5.72;4.25;;;26.00;76.70;;;;;;5067666;28;20217;-83
2022/08/09 11:50:02;;;;;;;4.80;3.40;;;26.30;76.70;;;;;;5065765;28;20437;-82
2022/08/09 11:52:30;;;;;;;11.15;7.97;;;26.40;77.10;;;;;;5067702;28;20206;-82
2022/08/09 11:55:30;;;;;;;4.47;3.70;;;26.60;75.40;;;;;;5063175;28;20226;-82
2022/08/09 11:57:58;;;;;;;5.07;3.33;;;26.60;73.50;;;;;;5061518;28;20216;-82
2022/08/09 12:00:28;;;;;;;4.30;3.50;;;26.70;74.30;;;;;;5053368;28;20214;-83
2022/08/09 12:02:58;;;;;;;4.28;3.00;;;26.80;73.20;;;;;;5069802;28;20197;-83
2022/08/09 12:05:34;;;;;;;5.80;2.83;;;26.70;72.70;;;;;;5066452;28;20204;-83
2022/08/09 12:08:06;;;;;;;3.15;2.65;;;26.90;73.30;;;;;;5064721;28;20217;-83
2022/08/09 12:10:34;;;;;;;3.83;3.47;;;26.90;72.70;;;;;;5067523;28;20210;-83
2022/08/09 12:13:01;;;;;;;3.80;3.47;;;27.00;71.10;;;;;;5062082;28;20205;-82
2022/08/09 12:15:30;;;;;;;2.90;2.65;;;27.00;68.80;;;;;;5065320;28;20530;-82
2022/08/09 12:18:16;;;;;;;3.53;2.88;;;27.10;69.20;;;;;;5057892;28;20586;-81
2022/08/09 12:20:53;;;;;;;3.33;3.03;;;27.40;68.50;;;;;;5070304;28;20210;-81
2022/08/09 12:23:21;;;;;;;4.57;3.00;;;27.60;66.10;;;;;;5076654;28;20194;-81
2022/08/09 12:25:50;;;;;;;5.05;3.10;;;27.80;65.90;;;;;;5071452;28;20197;-81
2022/08/09 12:28:19;;;;;;;3.92;2.70;;;27.90;63.00;;;;;;5077208;28;20197;-81
2022/08/09 12:30:47;;;;;;;3.75;3.00;;;28.10;62.20;;;;;;5076916;28;20206;-81
2022/08/09 12:33:18;;;;;;;3.40;3.10;;;27.90;60.20;;;;;;5061117;28;20214;-81
2022/08/09 12:35:46;;;;;;;3.65;2.78;;;27.70;60.20;;;;;;5074833;28;20213;-81
2022/08/09 12:38:17;;;;;;;3.53;2.67;;;27.90;60.50;;;;;;5073597;28;20213;-81
2022/08/09 12:40:46;;;;;;;4.63;2.35;;;28.30;60.90;;;;;;5079107;28;20204;-81
2022/08/09 12:43:15;;;;;;;3.50;3.20;;;28.50;58.90;;;;;;5073586;28;20193;-80
2022/08/09 12:45:54;;;;;;;3.17;2.90;;;28.60;58.20;;;;;;5072292;28;20211;-81
2022/08/09 12:48:27;;;;;;;3.45;3.22;;;28.70;57.30;;;;;;5075099;28;20279;-81
2022/08/09 12:51:00;;;;;;;4.00;2.63;;;28.60;56.00;;;;;;5084951;28;20201;-81
2022/08/09 12:53:30;;;;;;;3.15;2.85;;;28.70;56.90;;;;;;5074589;28;20213;-80
2022/08/09 12:56:09;;;;;;;5.00;2.90;;;28.80;57.30;;;;;;5078537;28;20189;-81
2022/08/09 12:58:38;;;;;;;4.25;3.00;;;29.00;55.80;;;;;;5072720;28;20209;-81
2022/08/09 13:01:19;;;;;;;2.70;2.50;;;29.00;55.90;;;;;;5072999;28;20212;-81
2022/08/09 13:03:58;;;;;;;2.80;2.60;;;29.10;54.50;;;;;;5074268;28;20195;-81
2022/08/09 13:06:31;;;;;;;3.70;2.90;;;29.20;54.20;;;;;;5074524;28;20224;-81
2022/08/09 13:09:01;;;;;;;3.90;2.90;;;29.30;53.50;;;;;;5075514;28;20578;-80
2022/08/09 13:11:30;;;;;;;3.22;2.92;;;28.80;53.30;;;;;;5069903;28;20217;-81
2022/08/09 13:13:58;;;;;;;2.95;2.50;;;28.80;54.20;;;;;;5076350;28;20205;-81
2022/08/09 13:16:56;;;;;;;4.90;3.00;;;29.00;53.80;;;;;;5077667;28;20221;-81
2022/08/09 13:19:27;;;;;;;3.83;2.40;;;29.20;53.20;;;;;;5076653;28;20201;-81